createdAt,value
2019-01-29T07:37:27.262Z,32.26
2019-01-29T07:38:27.557Z,32.15
2019-01-29T07:39:27.847Z,32.14
2019-01-29T07:41:22.277Z,32.12
2019-01-29T07:42:22.603Z,31.12
2019-01-29T07:44:04.548Z,30.71
2019-01-29T07:45:04.878Z,32.32
2019-01-29T07:47:26.165Z,31.22
2019-01-29T07:48:26.479Z,31.00
2019-01-29T07:49:26.802Z,31.00
2019-01-29T07:51:45.172Z,31.20
2019-01-29T07:52:45.486Z,30.99
2019-01-29T07:54:51.091Z,30.58
2019-01-29T07:55:51.554Z,30.58
2019-01-29T07:56:51.885Z,30.38
2019-01-29T07:57:52.204Z,30.79
2019-01-29T07:58:52.655Z,30.58
2019-01-29T08:00:34.878Z,30.87
2019-01-29T08:01:35.197Z,30.79
2019-01-29T08:02:35.519Z,30.50
2019-01-29T08:03:38.294Z,30.50
2019-01-29T08:04:39.045Z,31.00
2019-01-29T08:05:39.395Z,30.88
2019-01-29T08:06:40.445Z,31.39
2019-01-29T08:07:41.121Z,31.19
2019-01-29T08:09:09.785Z,30.58
2019-01-29T08:10:10.483Z,31.27
2019-01-29T08:11:10.866Z,30.38
2019-01-29T08:12:12.120Z,30.68
2019-01-29T08:13:12.526Z,30.97
2019-01-29T08:14:12.843Z,30.97
2019-01-29T08:15:13.146Z,30.96
2019-01-29T08:16:15.557Z,31.13
2019-01-29T08:17:16.466Z,32.14
2019-01-29T08:18:17.143Z,31.21
2019-01-29T08:19:17.516Z,31.01
2019-01-29T08:21:00.303Z,29.29
2019-01-29T08:22:00.619Z,29.29
2019-01-29T08:23:00.948Z,29.08
2019-01-29T08:24:01.287Z,28.48
2019-01-29T08:25:02.345Z,28.56
2019-01-29T08:26:02.710Z,29.47
2019-01-29T08:27:03.027Z,29.08
2019-01-29T08:28:03.423Z,28.99
2019-01-29T10:13:49.663Z,30.40
2019-01-29T10:14:49.958Z,30.30
2019-01-29T10:15:50.246Z,30.08
2019-01-29T10:16:50.552Z,30.18
2019-01-29T10:17:50.838Z,30.08
2019-01-29T10:18:51.113Z,29.38
2019-01-29T10:19:51.378Z,29.57
2019-01-29T10:20:51.648Z,29.36
2019-01-29T10:21:51.975Z,29.66
2019-01-29T10:22:52.265Z,29.38
2019-01-29T10:23:52.544Z,30.58
2019-01-29T10:24:52.817Z,30.28
2019-01-29T10:25:53.108Z,30.38
2019-01-29T10:26:53.472Z,30.08
2019-01-29T10:27:53.751Z,30.88
2019-01-29T10:28:54.046Z,30.38
2019-01-29T10:29:54.379Z,30.28
2019-01-29T10:30:54.625Z,30.28
2019-01-29T10:31:54.900Z,30.38
2019-01-29T10:32:55.135Z,30.79
2019-01-29T10:33:55.395Z,31.09
2019-01-29T10:34:55.625Z,30.99
2019-01-29T10:35:55.886Z,30.48
2019-01-29T10:36:56.150Z,30.99
2019-01-29T10:37:56.403Z,30.79
2019-01-29T10:38:56.655Z,29.99
2019-01-29T10:39:56.898Z,30.28
2019-01-29T10:40:57.143Z,30.79
2019-01-29T10:41:57.412Z,30.79
2019-01-29T10:42:57.653Z,30.88
2019-01-29T10:43:57.914Z,30.68
2019-01-29T10:44:58.230Z,30.68
2019-01-29T10:45:58.492Z,30.48
2019-01-29T10:46:58.775Z,30.88
2019-01-29T10:47:59.112Z,30.48
2019-01-29T10:49:57.065Z,30.57
2019-01-29T10:50:57.439Z,30.27
2019-01-29T10:51:57.812Z,30.87
2019-01-29T10:52:58.171Z,30.79
2019-01-29T10:53:58.530Z,30.79
2019-01-29T10:54:58.896Z,30.79
2019-01-29T10:55:59.251Z,30.79
2019-01-29T10:56:59.632Z,30.48
2019-01-29T10:57:59.981Z,30.38
2019-01-29T10:59:00.358Z,30.48
2019-01-29T11:00:00.762Z,30.48
2019-01-29T11:01:01.204Z,30.18
2019-01-29T11:02:43.339Z,30.79
2019-01-29T11:03:43.672Z,30.48
2019-01-29T11:05:58.222Z,29.77
2019-01-29T11:06:58.554Z,30.07
2019-01-29T11:09:03.336Z,30.87
2019-01-29T11:10:03.647Z,30.05
2019-01-29T11:11:04.738Z,29.75
2019-01-29T11:12:05.464Z,30.16
2019-01-29T11:13:07.401Z,29.85
2019-01-29T11:14:08.138Z,29.75
2019-01-29T11:15:08.749Z,29.77
2019-01-29T11:16:09.365Z,29.77
2019-01-29T11:17:10.004Z,29.77
2019-01-29T11:18:10.623Z,29.36
2019-01-29T11:19:11.242Z,30.07
2019-01-29T11:20:11.874Z,29.98
2019-01-29T11:21:12.527Z,30.38
2019-01-29T11:22:13.173Z,30.18
2019-01-29T11:23:13.788Z,30.48
2019-01-29T11:24:14.400Z,30.08
2019-01-29T11:25:15.018Z,29.98
2019-01-29T11:26:15.644Z,30.08
2019-01-29T11:27:16.260Z,30.50
2019-01-29T11:28:16.881Z,30.28
2019-01-29T11:29:17.498Z,30.18
2019-01-29T11:30:18.183Z,30.18
2019-01-29T11:31:18.789Z,30.30
2019-01-29T11:32:19.416Z,30.80
2019-01-29T11:33:20.018Z,30.99
2019-01-29T11:34:20.628Z,30.68
2019-01-29T11:35:21.239Z,31.00
2019-01-29T11:36:21.856Z,30.90
2019-01-29T11:37:22.488Z,30.90
2019-01-29T11:38:23.102Z,30.60
2019-01-29T11:39:23.708Z,30.30
2019-01-29T11:40:24.353Z,30.30
2019-01-29T11:41:24.963Z,30.80
2019-01-29T11:42:25.579Z,30.40
2019-01-29T11:43:26.190Z,30.30
2019-01-29T11:44:26.799Z,30.50
2019-01-29T11:45:27.422Z,30.40
2019-01-29T11:46:28.046Z,30.30
2019-01-29T11:47:28.665Z,30.50
2019-01-29T11:48:29.270Z,30.40
2019-01-29T11:49:29.884Z,30.50
2019-01-29T11:50:30.576Z,30.30
2019-01-29T11:52:07.808Z,30.60
2019-01-29T11:53:08.520Z,31.00
2019-01-29T11:54:08.838Z,30.38
2019-01-29T11:55:09.171Z,30.18
2019-01-29T11:56:09.846Z,30.58
2019-01-29T11:57:46.862Z,30.28
2019-01-29T11:58:47.570Z,30.38
2019-01-29T11:59:48.182Z,30.48
2019-01-29T12:00:48.663Z,30.38
2019-01-29T12:01:49.270Z,30.16
2019-01-29T12:02:50.546Z,30.36
2019-01-29T12:03:51.487Z,30.36
2019-01-29T12:04:52.095Z,30.27
2019-01-29T12:05:52.701Z,30.48
2019-01-29T12:06:53.308Z,30.77
2019-01-29T12:07:53.953Z,30.97
2019-01-29T12:08:54.560Z,30.67
2019-01-29T12:09:56.524Z,29.97
2019-01-29T12:10:57.266Z,30.26
2019-01-29T12:11:57.868Z,30.16
2019-01-29T12:12:58.484Z,29.75
2019-01-29T12:13:59.102Z,29.55
2019-01-29T12:14:59.704Z,29.05
2019-01-29T12:16:00.389Z,30.05
2019-01-29T12:17:00.984Z,29.55
2019-01-29T12:18:01.593Z,29.95
2019-01-29T12:19:02.194Z,30.46
2019-01-29T12:20:02.805Z,30.55
2019-01-29T12:21:03.408Z,30.36
2019-01-29T12:22:04.014Z,30.55
2019-01-29T12:23:04.629Z,30.77
2019-01-29T12:24:05.234Z,30.76
2019-01-29T12:25:05.834Z,30.76
2019-01-29T12:26:13.065Z,30.15
2019-01-29T12:27:13.021Z,30.05
2019-01-29T12:28:13.642Z,30.26
2019-01-29T12:29:14.917Z,30.55
2019-01-29T12:30:15.546Z,30.55
2019-01-29T12:31:16.162Z,30.05
2019-01-29T12:32:16.773Z,30.04
2019-01-29T12:33:17.476Z,30.54
2019-01-29T12:34:18.076Z,30.24
2019-01-29T12:35:18.687Z,30.34
2019-01-29T12:36:19.341Z,30.74
2019-01-29T12:37:19.970Z,30.34
2019-01-29T12:38:20.604Z,30.24
2019-01-29T12:39:21.222Z,30.34
2019-01-29T12:40:21.847Z,29.95
2019-01-29T12:41:22.454Z,30.26
2019-01-29T12:42:23.051Z,30.46
2019-01-29T12:43:23.710Z,30.35
2019-01-29T12:44:24.312Z,30.46
2019-01-29T12:45:24.926Z,30.96
2019-01-29T12:46:25.527Z,30.46
2019-01-29T12:47:26.132Z,29.85
2019-01-29T12:48:26.750Z,30.76
2019-01-29T12:49:27.371Z,30.65
2019-01-29T12:50:27.985Z,30.05
2019-01-29T12:51:28.585Z,30.26
2019-01-29T12:52:29.213Z,30.26
2019-01-29T12:53:29.811Z,30.26
2019-01-29T12:54:30.410Z,30.15
2019-01-29T12:55:31.031Z,30.65
2019-01-29T12:56:31.636Z,30.46
2019-01-29T12:57:32.279Z,30.55
2019-01-29T12:58:32.882Z,30.46
2019-01-29T12:59:33.487Z,30.65
2019-01-29T13:00:34.086Z,30.15
2019-01-29T13:01:34.691Z,30.26
2019-01-29T13:02:35.340Z,30.65
2019-01-29T13:03:35.937Z,30.15
2019-01-29T13:04:36.541Z,30.15
2019-01-29T13:05:37.166Z,30.05
2019-01-29T13:06:37.770Z,30.55
2019-01-29T13:07:38.405Z,30.55
2019-01-29T13:08:39.007Z,30.76
2019-01-29T13:09:39.599Z,30.26
2019-01-29T13:10:40.191Z,30.35
2019-01-29T13:11:40.771Z,30.76
2019-01-29T13:12:41.376Z,30.26
2019-01-29T13:13:41.967Z,30.46
2019-01-29T13:14:42.565Z,30.26
2019-01-29T13:15:43.151Z,30.96
2019-01-29T13:16:43.755Z,30.35
2019-01-29T13:17:44.368Z,30.26
2019-01-29T13:18:44.957Z,30.15
2019-01-29T13:19:45.364Z,30.15
2019-01-29T13:20:45.783Z,30.46
2019-01-29T13:21:46.204Z,30.35
2019-01-29T13:22:46.786Z,30.85
2019-01-29T13:23:47.209Z,30.46
2019-01-29T13:24:47.614Z,30.15
2019-01-29T13:25:48.274Z,30.05
2019-01-29T13:27:57.665Z,30.54
2019-01-29T13:28:58.262Z,30.94
2019-01-29T13:29:58.853Z,30.04
2019-01-29T13:32:14.415Z,30.73
2019-01-29T13:33:15.052Z,30.34
2019-01-29T13:34:16.631Z,30.74
2019-01-29T13:35:17.812Z,30.64
2019-01-29T13:36:18.315Z,30.83
2019-01-29T13:37:18.937Z,30.93
2019-01-29T13:38:19.573Z,30.74
2019-01-29T13:39:20.180Z,30.74
2019-01-29T13:40:20.797Z,30.24
2019-01-29T13:41:21.424Z,30.63
2019-01-29T13:42:22.178Z,30.63
2019-01-29T13:44:21.228Z,30.93
2019-01-29T13:47:14.208Z,30.52
2019-01-29T13:48:15.340Z,30.22
2019-01-29T13:49:16.605Z,30.73
2019-01-29T13:52:50.403Z,30.50
2019-01-29T13:53:51.480Z,31.42
2019-01-29T13:54:52.055Z,31.52
2019-01-29T13:55:52.493Z,32.03
2019-01-29T13:56:54.851Z,32.03
2019-01-29T13:57:55.931Z,37.02
2019-01-29T13:59:39.016Z,36.84
2019-01-29T14:00:40.119Z,38.09
2019-01-29T14:01:47.411Z,38.11
2019-01-29T14:02:48.620Z,39.02
2019-01-29T14:03:49.334Z,38.71
2019-01-29T14:04:50.618Z,38.61
2019-01-29T14:07:07.812Z,37.59
2019-01-29T14:08:25.342Z,38.28
2019-01-29T14:09:26.423Z,37.04
2019-01-29T14:10:26.908Z,37.43
2019-01-29T14:11:28.108Z,36.62
2019-01-29T14:12:29.566Z,38.12
2019-01-29T14:13:30.187Z,41.53
2019-01-29T14:14:31.524Z,42.83
2019-01-29T14:15:32.098Z,44.30
2019-01-29T14:16:32.767Z,45.46
2019-01-29T14:17:33.127Z,48.36
2019-01-29T14:18:34.253Z,49.57
2019-01-29T14:19:35.463Z,49.94
2019-01-29T14:22:12.803Z,52.47
2019-01-29T14:23:13.360Z,53.42
2019-01-29T14:24:13.801Z,53.17
2019-01-29T14:25:14.260Z,54.35
2019-01-29T14:26:15.736Z,54.46
2019-01-29T14:27:16.162Z,54.83
2019-01-29T14:28:18.616Z,55.99
2019-01-29T14:29:19.061Z,56.18
2019-01-29T14:30:19.550Z,56.76
2019-01-29T14:31:19.971Z,56.44
2019-01-29T14:32:20.488Z,57.78
2019-01-29T14:33:21.071Z,58.17
2019-01-29T14:34:21.773Z,57.61
2019-01-29T14:35:22.251Z,58.25
2019-01-29T14:36:22.668Z,59.42
2019-01-29T14:37:23.090Z,59.55
2019-01-29T14:38:23.615Z,59.20
2019-01-29T14:39:24.126Z,60.35
2019-01-29T14:40:24.579Z,59.69
2019-01-29T14:41:25.006Z,60.82
2019-01-29T14:42:25.482Z,60.77
2019-01-29T14:43:25.926Z,61.10
2019-01-29T14:44:26.367Z,60.72
2019-01-29T14:45:26.982Z,61.06
2019-01-29T14:46:27.442Z,61.60
2019-01-29T14:47:27.934Z,61.32
2019-01-29T14:48:28.379Z,62.35
2019-01-29T14:49:28.830Z,61.76
2019-01-29T14:50:29.322Z,62.17
2019-01-29T14:51:29.759Z,62.10
2019-01-29T14:52:31.271Z,62.10
2019-01-29T14:53:31.695Z,62.10
2019-01-29T14:54:32.246Z,62.02
2019-01-29T14:55:32.667Z,62.12
2019-01-29T14:56:40.621Z,62.05
2019-01-29T14:57:41.161Z,62.26
2019-01-29T14:58:41.658Z,61.95
2019-01-29T14:59:42.162Z,61.85
2019-01-29T15:00:42.696Z,62.39
2019-01-29T15:01:43.954Z,62.08
2019-01-29T15:02:44.487Z,62.41
2019-01-29T15:03:44.920Z,62.55
2019-01-29T15:04:45.417Z,62.85
2019-01-29T15:05:45.847Z,63.17
2019-01-29T15:06:46.425Z,63.40
2019-01-29T15:07:46.869Z,63.29
2019-01-29T15:08:47.467Z,63.22
2019-01-29T15:09:47.985Z,63.53
2019-01-29T15:10:48.508Z,63.64
2019-01-29T15:11:48.950Z,63.94
2019-01-29T15:12:49.447Z,63.74
2019-01-29T15:13:49.945Z,63.56
2019-01-29T15:14:50.522Z,63.67
2019-01-29T15:15:50.964Z,63.76
2019-01-29T15:16:51.434Z,63.87
2019-01-29T15:17:51.895Z,63.67
2019-01-29T15:18:52.471Z,63.76
2019-01-29T15:19:52.940Z,64.21
2019-01-29T15:20:53.397Z,64.31
2019-01-29T15:21:53.834Z,64.11
2019-01-29T15:22:54.256Z,64.41
2019-01-29T15:23:54.705Z,64.31
2019-01-29T15:24:55.210Z,64.24
2019-01-29T15:25:55.645Z,65.06
2019-01-29T15:27:05.132Z,64.86
2019-01-29T15:28:03.508Z,65.06
2019-01-29T15:29:03.989Z,64.54
2019-01-29T15:30:04.462Z,64.65
2019-01-29T15:31:04.899Z,64.78
2019-01-29T15:32:05.331Z,64.58
2019-01-29T15:33:05.777Z,64.68
2019-01-29T15:34:06.190Z,64.44
2019-01-29T15:35:06.674Z,64.37
2019-01-29T15:36:07.104Z,64.58
2019-01-29T15:37:07.553Z,64.68
2019-01-29T15:38:07.987Z,64.47
2019-01-29T15:39:08.405Z,64.47
2019-01-29T15:40:08.861Z,64.89
2019-01-29T15:41:09.282Z,64.37
2019-01-29T15:42:09.708Z,64.19
2019-01-29T15:43:10.140Z,64.99
2019-01-29T15:44:10.598Z,64.92
2019-01-29T15:45:11.077Z,64.92
2019-01-29T15:46:12.056Z,64.37
2019-01-29T15:47:12.486Z,64.19
2019-01-29T15:48:12.922Z,64.40
2019-01-29T15:49:13.346Z,65.43
2019-01-29T15:50:13.824Z,64.81
2019-01-29T15:51:14.246Z,65.43
2019-01-29T15:52:14.672Z,65.25
2019-01-29T15:53:15.087Z,64.95
2019-01-29T15:54:15.517Z,64.84
2019-01-29T15:55:15.959Z,64.74
2019-01-29T15:56:16.385Z,64.95
2019-01-29T15:57:16.817Z,64.95
2019-01-29T15:58:18.246Z,64.84
2019-01-29T15:59:18.667Z,64.95
2019-01-29T16:00:19.135Z,65.08
2019-01-29T16:01:19.563Z,64.98
2019-01-29T16:02:19.985Z,64.98
2019-01-29T16:03:20.442Z,65.39
2019-01-29T16:04:20.875Z,65.42
2019-01-29T16:05:23.415Z,65.21
2019-01-29T16:06:23.852Z,65.31
2019-01-29T16:07:24.309Z,65.31
2019-01-29T16:08:24.742Z,65.52
2019-01-29T16:09:25.319Z,65.45
2019-01-29T16:10:25.769Z,65.73
2019-01-29T16:11:26.281Z,65.55
2019-01-29T16:12:26.705Z,65.73
2019-01-29T16:13:27.216Z,65.45
2019-01-29T16:14:27.642Z,65.76
2019-01-29T16:15:28.086Z,65.55
2019-01-29T16:16:28.511Z,65.86
2019-01-29T16:17:28.946Z,65.45
2019-01-29T16:18:29.376Z,66.00
2019-01-29T16:19:29.920Z,65.58
2019-01-29T16:20:30.366Z,66.00
2019-01-29T16:21:30.812Z,66.00
2019-01-29T16:22:31.242Z,66.30
2019-01-29T16:23:31.678Z,66.20
2019-01-29T16:24:32.107Z,66.00
2019-01-29T16:25:32.552Z,66.03
2019-01-29T16:26:32.992Z,65.58
2019-01-29T16:27:33.470Z,66.10
2019-01-29T16:28:33.904Z,65.58
2019-01-29T16:29:34.321Z,66.03
2019-01-29T16:30:34.839Z,65.79
2019-01-29T16:31:35.261Z,65.82
2019-01-29T16:32:35.744Z,65.79
2019-01-29T16:33:36.164Z,65.69
2019-01-29T16:34:36.680Z,65.82
2019-01-29T16:35:37.133Z,66.23
2019-01-29T16:36:37.563Z,65.82
2019-01-29T16:37:37.983Z,65.82
2019-01-29T16:38:38.403Z,65.72
2019-01-29T16:39:38.832Z,65.82
2019-01-29T16:40:39.289Z,65.85
2019-01-29T16:41:39.764Z,66.06
2019-01-29T16:42:40.619Z,65.85
2019-01-29T16:43:41.045Z,65.95
2019-01-29T16:44:41.468Z,65.64
2019-01-29T16:45:41.935Z,65.95
2019-01-29T16:46:42.414Z,65.75
2019-01-29T16:47:42.858Z,66.29
2019-01-29T16:48:43.337Z,66.16
2019-01-29T16:49:43.766Z,66.50
2019-01-29T16:50:44.294Z,66.60
2019-01-29T16:51:44.725Z,66.50
2019-01-29T16:52:45.204Z,66.50
2019-01-29T16:53:45.626Z,66.60
2019-01-29T16:54:47.156Z,66.39
2019-01-29T16:55:47.615Z,66.29
2019-01-29T16:56:48.039Z,66.39
2019-01-29T16:57:48.496Z,66.50
2019-01-29T16:58:48.918Z,66.39
2019-01-29T16:59:49.432Z,66.50
2019-01-29T17:00:49.891Z,66.63
2019-01-29T17:01:50.377Z,66.09
2019-01-29T17:02:50.808Z,66.39
2019-01-29T17:03:51.302Z,66.50
2019-01-29T17:04:51.741Z,65.78
2019-01-29T17:05:52.275Z,66.19
2019-01-29T17:06:52.708Z,65.91
2019-01-29T17:07:53.173Z,65.70
2019-01-29T17:08:53.596Z,65.81
2019-01-29T17:09:56.055Z,65.70
2019-01-29T17:10:56.523Z,66.53
2019-01-29T17:11:56.992Z,66.42
2019-01-29T17:12:57.447Z,66.42
2019-01-29T17:13:57.933Z,66.63
2019-01-29T17:14:58.357Z,66.53
2019-01-29T17:15:58.895Z,66.32
2019-01-29T17:16:59.323Z,66.32
2019-01-29T17:17:59.798Z,66.84
2019-01-29T17:19:00.219Z,66.84
2019-01-29T17:20:00.734Z,66.97
2019-01-29T17:21:01.183Z,66.84
2019-01-29T17:22:01.610Z,66.56
2019-01-29T17:23:02.084Z,66.22
2019-01-29T17:24:02.510Z,66.25
2019-01-29T17:25:03.019Z,66.77
2019-01-29T17:26:03.484Z,66.74
2019-01-29T17:27:03.957Z,66.77
2019-01-29T17:28:04.384Z,66.42
2019-01-29T17:29:04.813Z,66.42
2019-01-29T17:30:05.245Z,65.60
2019-01-29T17:31:05.754Z,65.84
2019-01-29T17:32:06.185Z,65.63
2019-01-29T17:33:06.706Z,66.49
2019-01-29T17:34:07.131Z,66.56
2019-01-29T17:35:07.627Z,66.59
2019-01-29T17:36:08.185Z,66.87
2019-01-29T17:37:08.607Z,66.69
2019-01-29T17:38:09.231Z,66.80
2019-01-29T17:39:09.663Z,66.72
2019-01-29T17:40:10.103Z,66.72
2019-01-29T17:41:10.567Z,66.93
2019-01-29T17:42:11.065Z,66.93
2019-01-29T17:43:11.477Z,67.32
2019-01-29T17:44:12.000Z,67.35
2019-01-29T17:45:12.428Z,67.35
2019-01-29T17:46:12.962Z,66.93
2019-01-29T17:47:13.404Z,66.83
2019-01-29T17:48:13.875Z,67.03
2019-01-29T17:49:14.298Z,67.14
2019-01-29T17:50:14.805Z,67.45
2019-01-29T17:51:15.271Z,67.27
2019-01-29T17:52:15.753Z,67.07
2019-01-29T17:53:16.184Z,67.35
2019-01-29T17:54:17.716Z,67.48
2019-01-29T17:55:18.138Z,67.24
2019-01-29T17:56:18.737Z,67.38
2019-01-29T17:57:19.178Z,67.55
2019-01-29T17:58:19.689Z,67.55
2019-01-29T17:59:20.104Z,67.27
2019-01-29T18:00:22.557Z,67.55
2019-01-29T18:01:22.999Z,67.58
2019-01-29T18:02:25.648Z,67.17
2019-01-29T18:03:26.108Z,67.17
2019-01-29T18:04:26.549Z,67.48
2019-01-29T18:05:26.986Z,67.69
2019-01-29T18:06:27.557Z,67.48
2019-01-29T18:07:28.027Z,67.58
2019-01-29T18:08:28.552Z,67.58
2019-01-29T18:09:28.966Z,67.38
2019-01-29T18:10:29.483Z,67.35
2019-01-29T18:11:30.028Z,67.07
2019-01-29T18:12:30.558Z,67.17
2019-01-29T18:13:31.003Z,67.07
2019-01-29T18:14:31.452Z,66.96
2019-01-29T18:15:31.878Z,67.17
2019-01-29T18:16:32.424Z,67.17
2019-01-29T18:17:32.881Z,67.07
2019-01-29T18:18:33.432Z,67.17
2019-01-29T18:19:33.851Z,67.20
2019-01-29T18:20:34.367Z,67.72
2019-01-29T18:21:34.816Z,67.51
2019-01-29T18:22:35.345Z,67.51
2019-01-29T18:23:35.782Z,67.72
2019-01-29T18:24:37.329Z,67.41
2019-01-29T18:25:37.756Z,67.51
2019-01-29T18:26:38.375Z,67.51
2019-01-29T18:27:38.810Z,67.41
2019-01-29T18:28:39.297Z,67.61
2019-01-29T18:29:39.721Z,67.82
2019-01-29T18:30:40.227Z,67.30
2019-01-29T18:31:41.063Z,67.61
2019-01-29T18:32:41.513Z,67.30
2019-01-29T18:33:41.938Z,67.30
2019-01-29T18:34:43.603Z,67.30
2019-01-29T18:35:44.029Z,67.30
2019-01-29T18:36:44.481Z,67.55
2019-01-29T18:37:44.919Z,67.55
2019-01-29T18:38:45.450Z,67.61
2019-01-29T18:39:47.652Z,67.86
2019-01-29T18:40:48.291Z,67.65
2019-01-29T18:41:48.746Z,67.76
2019-01-29T18:42:49.176Z,67.76
2019-01-29T18:43:49.597Z,67.76
2019-01-29T18:44:50.026Z,67.86
2019-01-29T18:45:50.457Z,67.65
2019-01-29T18:46:50.944Z,67.61
2019-01-29T18:47:51.370Z,67.44
2019-01-29T18:48:51.795Z,67.72
2019-01-29T18:49:52.212Z,67.65
2019-01-29T18:50:52.654Z,67.41
2019-01-29T18:51:53.123Z,67.41
2019-01-29T18:52:53.547Z,67.41
2019-01-29T18:53:53.975Z,67.24
2019-01-29T18:54:54.401Z,67.44
2019-01-29T18:55:54.822Z,67.65
2019-01-29T18:56:55.286Z,67.65
2019-01-29T18:57:55.726Z,67.86
2019-01-29T18:58:56.236Z,67.34
2019-01-29T18:59:56.673Z,67.55
2019-01-29T19:00:57.127Z,67.76
2019-01-29T19:01:57.583Z,67.76
2019-01-29T19:02:58.018Z,67.86
2019-01-29T19:03:58.427Z,67.65
2019-01-29T19:04:58.955Z,67.86
2019-01-29T19:05:59.412Z,67.86
2019-01-29T19:07:03.112Z,67.79
2019-01-29T19:08:03.553Z,67.96
2019-01-29T19:09:05.007Z,67.96
2019-01-29T19:10:05.515Z,67.65
2019-01-29T19:11:07.762Z,67.24
2019-01-29T19:12:08.396Z,67.47
2019-01-29T19:13:08.926Z,67.44
2019-01-29T19:14:09.354Z,67.47
2019-01-29T19:15:09.831Z,67.47
2019-01-29T19:16:10.274Z,67.27
2019-01-29T19:17:10.794Z,67.58
2019-01-29T19:18:11.216Z,67.68
2019-01-29T19:19:11.696Z,68.10
2019-01-29T19:20:12.125Z,67.68
2019-01-29T19:21:14.697Z,67.58
2019-01-29T19:22:15.197Z,67.47
2019-01-29T19:23:15.745Z,67.99
2019-01-29T19:24:16.186Z,67.58
2019-01-29T19:25:16.662Z,67.47
2019-01-29T19:26:17.081Z,67.47
2019-01-29T19:27:18.547Z,67.47
2019-01-29T19:28:22.009Z,67.58
2019-01-29T19:29:22.736Z,67.68
2019-01-29T19:30:23.197Z,68.13
2019-01-29T19:31:23.662Z,67.79
2019-01-29T19:32:24.099Z,67.82
2019-01-29T19:33:24.595Z,67.92
2019-01-29T19:34:25.038Z,67.64
2019-01-29T19:35:25.462Z,68.23
2019-01-29T19:36:25.959Z,68.02
2019-01-29T19:37:26.398Z,68.13
2019-01-29T19:38:26.893Z,68.13
2019-01-29T19:39:27.321Z,68.13
2019-01-29T19:40:27.830Z,68.02
2019-01-29T19:41:28.269Z,68.13
2019-01-29T19:42:28.792Z,68.33
2019-01-29T19:43:29.213Z,68.13
2019-01-29T19:44:29.704Z,68.23
2019-01-29T19:45:30.127Z,68.23
2019-01-29T19:46:32.685Z,68.02
2019-01-29T19:47:33.123Z,68.02
2019-01-29T19:48:40.692Z,68.02
2019-01-29T19:49:41.129Z,68.13
2019-01-29T19:50:41.547Z,68.44
2019-01-29T19:51:42.041Z,68.44
2019-01-29T19:52:42.491Z,68.37
2019-01-29T19:53:42.982Z,68.37
2019-01-29T19:54:43.416Z,68.26
2019-01-29T19:55:43.907Z,68.26
2019-01-29T19:56:44.346Z,68.26
2019-01-29T19:57:44.890Z,68.26
2019-01-29T19:58:45.434Z,68.23
2019-01-29T19:59:45.982Z,68.44
2019-01-29T20:00:46.458Z,68.02
2019-01-29T20:01:46.897Z,68.13
2019-01-29T20:02:47.357Z,68.02
2019-01-29T20:03:47.871Z,68.02
2019-01-29T20:04:48.300Z,68.13
2019-01-29T20:05:53.692Z,67.82
2019-01-29T20:06:54.153Z,68.02
2019-01-29T20:07:54.605Z,67.92
2019-01-29T20:08:55.104Z,68.02
2019-01-29T20:09:55.533Z,68.02
2019-01-29T20:10:56.018Z,67.85
2019-01-29T20:11:56.453Z,68.33
2019-01-29T20:12:56.981Z,68.16
2019-01-29T20:13:57.410Z,68.47
2019-01-29T20:14:57.869Z,68.37
2019-01-29T20:15:58.310Z,68.47
2019-01-29T20:16:58.741Z,68.47
2019-01-29T20:17:59.313Z,68.26
2019-01-29T20:18:59.790Z,68.05
2019-01-29T20:20:05.340Z,68.05
2019-01-29T20:21:05.839Z,68.26
2019-01-29T20:22:06.333Z,68.26
2019-01-29T20:23:08.538Z,68.26
2019-01-29T20:24:09.112Z,68.16
2019-01-29T20:25:09.537Z,68.26
2019-01-29T20:26:11.069Z,68.37
2019-01-29T20:27:11.516Z,68.37
2019-01-29T20:28:13.058Z,68.33
2019-01-29T20:29:13.488Z,68.26
2019-01-29T20:30:13.903Z,68.37
2019-01-29T20:31:15.023Z,68.05
2019-01-29T20:32:15.566Z,68.05
2019-01-29T20:33:16.062Z,68.26
2019-01-29T20:34:16.486Z,68.37
2019-01-29T20:35:16.968Z,68.37
2019-01-29T20:36:17.391Z,68.26
2019-01-29T20:37:17.906Z,68.26
2019-01-29T20:38:18.349Z,68.26
2019-01-29T20:39:18.769Z,68.37
2019-01-29T20:40:19.257Z,68.05
2019-01-29T20:41:19.686Z,68.47
2019-01-29T20:42:20.195Z,68.26
2019-01-29T20:43:20.659Z,68.37
2019-01-29T20:44:21.150Z,68.37
2019-01-29T20:45:21.577Z,68.26
2019-01-29T20:46:22.102Z,68.37
2019-01-29T20:47:22.532Z,68.16
2019-01-29T20:48:23.040Z,68.16
2019-01-29T20:49:23.463Z,68.26
2019-01-29T20:50:23.948Z,68.26
2019-01-29T20:51:24.382Z,68.26
2019-01-29T20:52:24.883Z,68.26
2019-01-29T20:53:25.343Z,68.26
2019-01-29T20:54:25.817Z,68.29
2019-01-29T20:55:26.243Z,68.19
2019-01-29T20:56:26.753Z,68.16
2019-01-29T20:57:27.176Z,68.29
2019-01-29T20:58:27.835Z,68.40
2019-01-29T20:59:28.257Z,68.19
2019-01-29T21:00:28.739Z,68.29
2019-01-29T21:01:29.166Z,68.05
2019-01-29T21:02:29.590Z,67.98
2019-01-29T21:03:31.128Z,68.40
2019-01-29T21:04:31.551Z,68.16
2019-01-29T21:05:32.042Z,68.19
2019-01-29T21:06:32.481Z,68.40
2019-01-29T21:07:33.999Z,68.29
2019-01-29T21:08:34.439Z,68.19
2019-01-29T21:09:35.056Z,68.19
2019-01-29T21:10:35.498Z,68.29
2019-01-29T21:11:35.972Z,68.29
2019-01-29T21:12:36.610Z,68.50
2019-01-29T21:13:37.141Z,68.08
2019-01-29T21:14:37.578Z,68.40
2019-01-29T21:15:38.859Z,68.29
2019-01-29T21:16:39.344Z,68.19
2019-01-29T21:17:39.768Z,68.19
2019-01-29T21:18:40.230Z,68.40
2019-01-29T21:19:40.651Z,68.40
2019-01-29T21:20:41.139Z,68.08
2019-01-29T21:21:41.566Z,68.40
2019-01-29T21:22:44.021Z,68.40
2019-01-29T21:23:44.464Z,68.19
2019-01-29T21:24:44.949Z,68.29
2019-01-29T21:25:45.378Z,68.40
2019-01-29T21:26:45.892Z,68.22
2019-01-29T21:27:46.309Z,68.43
2019-01-29T21:28:46.770Z,68.63
2019-01-29T21:29:47.243Z,67.98
2019-01-29T21:30:47.671Z,68.29
2019-01-29T21:31:48.246Z,68.01
2019-01-29T21:32:48.765Z,68.32
2019-01-29T21:33:49.210Z,68.19
2019-01-29T21:34:49.632Z,68.12
2019-01-29T21:35:50.059Z,68.12
2019-01-29T21:36:50.486Z,68.12
2019-01-29T21:37:50.940Z,68.12
2019-01-29T21:38:51.382Z,68.32
2019-01-29T21:39:51.815Z,68.22
2019-01-29T21:40:52.233Z,68.12
2019-01-29T21:41:52.661Z,68.32
2019-01-29T21:42:53.081Z,68.12
2019-01-29T21:43:53.522Z,68.12
2019-01-29T21:44:53.968Z,68.22
2019-01-29T21:45:54.522Z,68.32
2019-01-29T21:46:54.951Z,68.01
2019-01-29T21:47:55.460Z,68.12
2019-01-29T21:48:55.898Z,68.32
2019-01-29T21:49:56.379Z,68.08
2019-01-29T21:50:56.820Z,68.01
2019-01-29T21:51:57.331Z,67.88
2019-01-29T21:52:57.751Z,68.01
2019-01-29T21:53:58.197Z,68.32
2019-01-29T21:54:58.634Z,68.01
2019-01-29T21:55:59.103Z,68.08
2019-01-29T21:56:59.530Z,68.43
2019-01-29T21:58:01.987Z,68.12
2019-01-29T21:59:02.439Z,68.12
2019-01-29T22:00:07.835Z,68.12
2019-01-29T22:01:08.259Z,68.12
2019-01-29T22:02:08.772Z,68.32
2019-01-29T22:03:09.195Z,68.12
2019-01-29T22:04:09.740Z,68.12
2019-01-29T22:05:10.214Z,68.12
2019-01-29T22:06:11.663Z,68.01
2019-01-29T22:07:12.090Z,68.01
2019-01-29T22:08:12.600Z,68.12
2019-01-29T22:09:13.042Z,68.43
2019-01-29T22:10:13.482Z,68.32
2019-01-29T22:11:14.977Z,68.01
2019-01-29T22:12:15.398Z,68.12
2019-01-29T22:13:15.911Z,68.32
2019-01-29T22:14:16.361Z,68.01
2019-01-29T22:15:16.873Z,68.01
2019-01-29T22:16:17.331Z,68.01
2019-01-29T22:17:17.898Z,68.12
2019-01-29T22:18:18.330Z,68.12
2019-01-29T22:19:18.843Z,68.12
2019-01-29T22:20:19.268Z,68.12
2019-01-29T22:21:19.744Z,68.40
2019-01-29T22:22:20.167Z,68.01
2019-01-29T22:23:20.680Z,68.32
2019-01-29T22:24:21.127Z,68.43
2019-01-29T22:25:21.624Z,68.25
2019-01-29T22:26:22.048Z,68.04
2019-01-29T22:27:24.499Z,68.04
2019-01-29T22:28:24.953Z,68.53
2019-01-29T22:29:25.463Z,68.25
2019-01-29T22:30:25.885Z,68.66
2019-01-29T22:31:26.368Z,68.01
2019-01-29T22:32:26.805Z,68.25
2019-01-29T22:33:28.337Z,67.91
2019-01-29T22:34:28.788Z,68.22
2019-01-29T22:35:29.263Z,67.83
2019-01-29T22:36:29.687Z,68.12
2019-01-29T22:37:30.199Z,68.12
2019-01-29T22:38:30.617Z,67.91
2019-01-29T22:39:31.174Z,68.66
2019-01-29T22:40:31.593Z,68.56
2019-01-29T22:41:32.169Z,68.88
2019-01-29T22:42:32.601Z,68.66
2019-01-29T22:43:34.129Z,68.66
2019-01-29T22:44:34.634Z,69.09
2019-01-29T22:45:35.169Z,68.56
2019-01-29T22:46:35.613Z,68.66